Time;durP1;ratioP1;P1;durP2;ratioP2;P2;SDS_P1;SDS_P2;PMS_P1;PMS_P2;Temp;Humidity;BMP_temperature;BMP_pressure;BME280_temperature;BME280_humidity;BME280_pressure;Samples;Min_cycle;Max_cycle;Signal;HPM_P1;HPM_P2
2021/04/02 00:01:34;;;;;;;4.70;3.07;;;7.70;99.90;;;;;;5018096;28;21742;-70
2021/04/02 00:04:01;;;;;;;4.03;2.20;;;7.80;99.90;;;;;;5040886;28;20459;-70
2021/04/02 00:06:28;;;;;;;9.30;3.87;;;7.80;99.90;;;;;;5027958;28;20449;-70
2021/04/02 00:08:55;;;;;;;4.13;2.33;;;7.80;99.90;;;;;;5041183;28;21057;-69
2021/04/02 00:11:22;;;;;;;2.50;2.10;;;7.80;99.90;;;;;;5038510;28;20619;-69
2021/04/02 00:13:48;;;;;;;4.63;2.73;;;7.70;99.90;;;;;;5017231;28;20494;-69
2021/04/02 00:16:18;;;;;;;4.47;4.07;;;7.60;99.90;;;;;;5029691;28;20856;-70
2021/04/02 00:18:46;;;;;;;4.63;2.70;;;7.60;99.90;;;;;;5042683;28;20451;-70
2021/04/02 00:21:15;;;;;;;6.87;3.80;;;7.60;99.90;;;;;;5045354;28;20426;-69
2021/04/02 00:23:43;;;;;;;3.07;2.40;;;7.60;99.90;;;;;;5043348;28;20487;-69
2021/04/02 00:26:11;;;;;;;5.17;3.40;;;7.50;99.90;;;;;;5038244;28;20471;-70
2021/04/02 00:28:41;;;;;;;6.00;2.97;;;7.50;99.90;;;;;;5043963;28;20621;-68
2021/04/02 00:31:08;;;;;;;2.60;2.27;;;7.60;99.90;;;;;;5045419;28;20470;-69
2021/04/02 00:33:35;;;;;;;6.77;2.57;;;7.50;99.90;;;;;;5046009;28;20460;-69
2021/04/02 00:36:04;;;;;;;6.40;3.00;;;7.40;99.90;;;;;;5046091;28;20884;-69
2021/04/02 00:38:32;;;;;;;3.53;2.43;;;7.30;99.90;;;;;;5043017;28;20540;-70
2021/04/02 00:41:01;;;;;;;5.30;3.07;;;7.30;99.90;;;;;;5047689;28;20464;-69
2021/04/02 00:43:29;;;;;;;5.40;2.63;;;7.50;99.90;;;;;;5042986;28;21204;-70
2021/04/02 00:45:56;;;;;;;6.03;2.40;;;7.50;99.90;;;;;;5038935;28;20557;-70
2021/04/02 00:48:23;;;;;;;6.07;3.87;;;7.60;99.90;;;;;;5027084;28;20479;-70
2021/04/02 00:50:57;;;;;;;5.47;3.27;;;7.50;99.90;;;;;;5038286;28;20507;-69
2021/04/02 00:53:30;;;;;;;2.83;2.50;;;7.30;99.90;;;;;;5038342;28;20469;-69
2021/04/02 00:55:59;;;;;;;6.37;2.70;;;7.40;99.90;;;;;;5040540;28;22599;-69
2021/04/02 00:58:32;;;;;;;3.80;2.67;;;7.60;99.90;;;;;;5046723;28;20631;-69
2021/04/02 01:00:59;;;;;;;4.07;2.50;;;7.60;99.90;;;;;;5041943;28;20466;-69
2021/04/02 01:03:27;;;;;;;5.40;2.60;;;7.70;99.90;;;;;;5037976;28;20435;-68
2021/04/02 01:05:56;;;;;;;3.87;2.50;;;7.70;99.90;;;;;;5046711;28;20460;-70
2021/04/02 01:08:26;;;;;;;3.23;2.40;;;7.70;99.90;;;;;;5037657;28;20510;-70
2021/04/02 01:10:55;;;;;;;2.33;2.13;;;7.50;99.90;;;;;;5037306;28;20546;-71
2021/04/02 01:13:27;;;;;;;3.37;3.03;;;7.60;99.90;;;;;;5039902;28;21050;-70
2021/04/02 01:16:00;;;;;;;3.10;2.30;;;7.30;99.90;;;;;;5038973;28;20570;-70
2021/04/02 01:18:30;;;;;;;3.67;2.40;;;7.40;99.90;;;;;;5038555;28;21865;-70
2021/04/02 01:21:00;;;;;;;2.60;2.20;;;7.30;99.90;;;;;;5037253;28;20478;-70
2021/04/02 01:23:32;;;;;;;10.93;2.80;;;7.50;99.90;;;;;;5046034;28;20573;-69
2021/04/02 01:26:07;;;;;;;2.17;1.97;;;7.50;99.90;;;;;;5040404;28;21022;-70
2021/04/02 01:28:58;;;;;;;8.37;3.33;;;7.50;99.90;;;;;;5042142;28;20471;-70
2021/04/02 01:31:25;;;;;;;5.00;2.53;;;7.50;99.90;;;;;;5053066;28;20479;-69
2021/04/02 01:33:54;;;;;;;3.17;2.00;;;7.20;99.90;;;;;;5046709;28;20452;-70
2021/04/02 01:36:22;;;;;;;4.20;2.43;;;7.20;99.90;;;;;;5039522;28;21016;-70
2021/04/02 01:38:50;;;;;;;6.97;3.80;;;7.20;99.90;;;;;;5044310;28;20876;-70
2021/04/02 01:41:20;;;;;;;12.80;4.20;;;7.20;99.90;;;;;;5039654;28;20429;-70
2021/04/02 01:43:51;;;;;;;3.97;3.30;;;7.20;99.90;;;;;;5043370;28;20429;-68
2021/04/02 01:46:19;;;;;;;3.73;3.33;;;7.10;99.90;;;;;;5041855;28;20486;-70
2021/04/02 01:48:47;;;;;;;3.67;3.03;;;7.10;99.90;;;;;;5040223;28;21156;-70
2021/04/02 01:51:15;;;;;;;5.00;3.50;;;7.10;99.90;;;;;;5043503;28;20557;-70
2021/04/02 01:53:45;;;;;;;4.33;2.90;;;7.10;99.90;;;;;;5044199;28;20475;-70
2021/04/02 01:56:13;;;;;;;3.13;2.87;;;7.10;99.90;;;;;;5044958;28;20462;-70
2021/04/02 01:58:43;;;;;;;5.27;2.37;;;6.80;99.90;;;;;;5044200;28;20777;-71
2021/04/02 02:01:11;;;;;;;4.10;3.10;;;6.70;99.90;;;;;;5051817;28;20882;-71
2021/04/02 02:03:39;;;;;;;2.90;2.17;;;6.50;99.90;;;;;;5048049;28;20854;-70
2021/04/02 02:06:08;;;;;;;3.33;2.60;;;6.50;99.90;;;;;;5047040;28;20550;-70
2021/04/02 02:08:36;;;;;;;3.73;3.00;;;6.50;99.90;;;;;;5047904;28;21237;-70
2021/04/02 02:11:09;;;;;;;8.47;3.47;;;6.50;99.90;;;;;;5043640;28;20430;-71
2021/04/02 02:13:37;;;;;;;8.83;2.63;;;6.60;99.90;;;;;;5040738;28;20437;-69
2021/04/02 02:16:06;;;;;;;7.60;2.67;;;6.60;99.90;;;;;;5044617;28;20970;-71
2021/04/02 02:18:35;;;;;;;4.67;3.03;;;6.40;99.90;;;;;;5041082;28;20492;-70
2021/04/02 02:21:04;;;;;;;4.77;3.20;;;6.30;99.90;;;;;;5045399;28;21044;-69
2021/04/02 02:23:31;;;;;;;4.93;3.40;;;5.90;99.90;;;;;;5045348;28;20455;-70
2021/04/02 02:25:58;;;;;;;7.20;3.03;;;5.80;99.90;;;;;;5026962;28;20981;-70
2021/04/02 02:28:24;;;;;;;6.73;3.53;;;5.70;99.90;;;;;;5048258;28;20601;-70
2021/04/02 02:30:51;;;;;;;6.10;2.80;;;6.00;99.90;;;;;;5043293;28;20475;-69
2021/04/02 02:33:18;;;;;;;9.53;3.33;;;5.80;99.90;;;;;;5045753;28;20455;-70
2021/04/02 02:35:44;;;;;;;2.93;2.63;;;5.80;99.90;;;;;;5043453;28;20574;-71
2021/04/02 02:38:12;;;;;;;6.17;3.37;;;5.90;99.90;;;;;;5011593;28;20572;-70
2021/04/02 02:40:39;;;;;;;5.13;3.20;;;5.90;99.90;;;;;;5025630;28;21022;-70
2021/04/02 02:43:06;;;;;;;5.43;3.77;;;6.10;99.90;;;;;;5028099;28;20459;-69
2021/04/02 02:45:34;;;;;;;3.87;3.37;;;6.20;99.90;;;;;;5044046;28;20514;-68
2021/04/02 02:48:02;;;;;;;7.00;3.40;;;6.30;99.90;;;;;;5042543;28;26457;-69
2021/04/02 02:50:31;;;;;;;4.03;3.37;;;5.80;99.90;;;;;;5047788;28;20462;-70
2021/04/02 02:52:59;;;;;;;4.37;2.97;;;5.30;99.90;;;;;;5043585;28;21104;-70
2021/04/02 02:55:30;;;;;;;5.10;3.50;;;5.20;99.90;;;;;;5045433;28;20467;-69
2021/04/02 02:57:59;;;;;;;3.13;2.83;;;5.20;99.90;;;;;;5042507;28;21118;-69
2021/04/02 03:00:28;;;;;;;4.63;2.80;;;5.30;99.90;;;;;;5039059;28;20550;-69
2021/04/02 03:02:58;;;;;;;3.77;2.53;;;5.50;99.90;;;;;;5043628;28;20457;-69
2021/04/02 03:05:27;;;;;;;4.97;3.30;;;5.70;99.90;;;;;;5044180;28;21784;-69
2021/04/02 03:07:56;;;;;;;4.00;3.60;;;5.70;99.90;;;;;;5044099;28;20540;-69
2021/04/02 03:10:24;;;;;;;7.80;2.70;;;5.70;99.90;;;;;;5048940;28;20450;-69
2021/04/02 03:12:54;;;;;;;2.87;2.60;;;5.80;99.90;;;;;;5049149;28;20610;-70
2021/04/02 03:15:23;;;;;;;4.90;3.73;;;5.70;99.90;;;;;;5043755;28;20510;-69
2021/04/02 03:17:53;;;;;;;11.97;4.80;;;5.70;99.90;;;;;;5050297;28;21320;-70
2021/04/02 03:20:22;;;;;;;4.30;2.70;;;5.50;99.90;;;;;;5049020;28;20523;-70
2021/04/02 03:22:49;;;;;;;3.93;3.30;;;5.50;99.90;;;;;;5051517;28;20955;-70
2021/04/02 03:25:19;;;;;;;6.60;3.47;;;5.50;99.90;;;;;;5046560;28;20542;-70
2021/04/02 03:27:47;;;;;;;3.33;3.03;;;5.50;99.90;;;;;;5048419;28;20480;-70
2021/04/02 03:30:16;;;;;;;4.77;3.10;;;5.40;99.90;;;;;;5046451;28;20443;-69
2021/04/02 03:32:46;;;;;;;8.00;2.53;;;5.30;99.90;;;;;;5050400;28;20833;-68
2021/04/02 03:35:14;;;;;;;12.13;3.43;;;5.20;99.90;;;;;;5046937;28;20479;-69
2021/04/02 03:37:43;;;;;;;5.50;2.93;;;5.30;99.90;;;;;;5041880;28;20525;-69
2021/04/02 03:40:14;;;;;;;4.40;2.50;;;5.40;99.90;;;;;;5057531;28;20447;-70
2021/04/02 03:42:43;;;;;;;9.10;2.60;;;5.40;99.90;;;;;;5052067;28;20938;-70
2021/04/02 03:45:11;;;;;;;5.50;2.73;;;5.30;99.90;;;;;;5049426;28;20471;-69
2021/04/02 03:47:41;;;;;;;3.77;3.30;;;5.30;99.90;;;;;;5053994;28;20458;-70
2021/04/02 03:50:11;;;;;;;3.87;2.93;;;5.40;99.90;;;;;;5053493;28;20505;-69
2021/04/02 03:52:40;;;;;;;10.83;3.50;;;5.80;99.90;;;;;;5045722;28;20835;-70
2021/04/02 03:55:09;;;;;;;4.33;3.00;;;5.70;99.90;;;;;;5052522;28;20453;-70
2021/04/02 03:57:39;;;;;;;4.23;3.40;;;5.90;99.90;;;;;;5047648;28;20514;-70
2021/04/02 04:00:16;;;;;;;3.90;3.13;;;5.70;99.90;;;;;;5054461;28;20447;-70
2021/04/02 04:02:46;;;;;;;5.07;3.67;;;5.50;99.90;;;;;;5049444;28;20425;-70
2021/04/02 04:05:17;;;;;;;4.50;3.30;;;5.70;99.90;;;;;;5052210;28;20451;-70
2021/04/02 04:07:47;;;;;;;3.10;2.60;;;5.70;99.90;;;;;;5049644;28;20467;-68
2021/04/02 04:10:18;;;;;;;4.13;3.40;;;5.70;99.90;;;;;;5044121;28;20467;-69
2021/04/02 04:12:54;;;;;;;6.73;3.80;;;6.00;99.90;;;;;;5043545;28;20483;-70
2021/04/02 04:15:22;;;;;;;4.67;3.10;;;6.10;99.90;;;;;;5040578;28;21031;-69
2021/04/02 04:17:51;;;;;;;4.90;3.50;;;6.10;99.90;;;;;;5039313;28;20487;-69
2021/04/02 04:20:19;;;;;;;15.17;5.17;;;6.50;99.90;;;;;;5041440;28;20491;-70
2021/04/02 04:22:48;;;;;;;7.00;3.60;;;6.60;99.90;;;;;;5040659;28;20467;-69
2021/04/02 04:25:20;;;;;;;3.90;3.10;;;6.60;99.90;;;;;;5038320;28;20456;-70
2021/04/02 04:27:47;;;;;;;4.07;2.87;;;6.30;99.90;;;;;;5039894;28;20614;-70
2021/04/02 04:30:17;;;;;;;3.00;2.23;;;6.40;99.90;;;;;;5039781;28;20550;-69
2021/04/02 04:32:44;;;;;;;3.97;2.37;;;6.50;99.90;;;;;;5041241;28;20530;-70
2021/04/02 04:35:15;;;;;;;2.03;1.73;;;6.50;99.90;;;;;;5040387;28;20485;-69
2021/04/02 04:37:44;;;;;;;3.27;2.50;;;6.50;99.90;;;;;;5035975;28;22318;-68
2021/04/02 04:40:13;;;;;;;4.23;3.37;;;6.50;99.90;;;;;;5041771;28;20513;-71
2021/04/02 04:42:44;;;;;;;2.27;1.53;;;6.40;99.90;;;;;;5038524;28;20508;-69
2021/04/02 04:45:12;;;;;;;9.40;4.47;;;6.20;99.90;;;;;;5041709;28;20463;-72
2021/04/02 04:47:39;;;;;;;3.83;3.47;;;6.10;99.90;;;;;;5040520;28;20534;-70
2021/04/02 04:50:07;;;;;;;3.40;2.57;;;6.10;99.90;;;;;;5043645;28;20845;-69
2021/04/02 04:52:40;;;;;;;6.53;3.17;;;6.20;99.90;;;;;;5043207;28;20490;-68
2021/04/02 04:55:10;;;;;;;5.73;3.63;;;6.20;99.90;;;;;;5049573;28;20479;-70
2021/04/02 04:57:40;;;;;;;3.80;2.90;;;6.10;99.90;;;;;;5040280;28;20561;-68
2021/04/02 05:00:08;;;;;;;5.53;4.00;;;5.80;99.90;;;;;;5043399;28;20477;-69
2021/04/02 05:02:38;;;;;;;3.53;3.23;;;5.80;99.90;;;;;;5044792;28;20483;-69
2021/04/02 05:05:07;;;;;;;8.63;3.90;;;5.90;99.90;;;;;;5041607;28;21086;-70
2021/04/02 05:07:36;;;;;;;5.60;3.90;;;5.90;99.90;;;;;;5037284;28;20571;-69
2021/04/02 05:10:04;;;;;;;8.80;3.00;;;5.90;99.90;;;;;;5040683;28;20550;-69
2021/04/02 05:12:32;;;;;;;14.63;3.70;;;5.90;99.90;;;;;;5039834;28;20510;-68
2021/04/02 05:15:02;;;;;;;29.60;4.10;;;6.00;99.90;;;;;;5040042;28;20463;-69
2021/04/02 05:17:29;;;;;;;6.67;4.17;;;6.20;99.90;;;;;;5044627;28;20471;-69
2021/04/02 05:19:57;;;;;;;7.23;3.27;;;6.40;99.90;;;;;;5038394;28;20523;-71
2021/04/02 05:22:23;;;;;;;12.50;5.80;;;6.30;99.90;;;;;;5044674;28;20959;-68
2021/04/02 05:24:51;;;;;;;6.73;3.80;;;6.10;99.90;;;;;;5038542;28;20422;-70
2021/04/02 05:27:18;;;;;;;6.80;3.30;;;6.10;99.90;;;;;;5042900;28;20519;-70
2021/04/02 05:29:45;;;;;;;6.77;3.20;;;6.00;99.90;;;;;;5044553;28;20481;-70
2021/04/02 05:32:11;;;;;;;4.87;3.20;;;5.90;99.90;;;;;;5043413;28;20487;-72
2021/04/02 05:34:38;;;;;;;6.20;3.73;;;5.80;99.90;;;;;;5038665;28;20462;-70
2021/04/02 05:37:05;;;;;;;4.47;3.57;;;5.90;99.90;;;;;;5046314;28;20485;-72
2021/04/02 05:39:32;;;;;;;4.43;3.37;;;5.70;99.90;;;;;;5040614;28;21077;-70
2021/04/02 05:42:03;;;;;;;7.60;6.77;;;5.80;99.90;;;;;;5034862;28;20462;-69
2021/04/02 05:44:32;;;;;;;7.27;4.07;;;6.00;99.90;;;;;;5050610;28;20539;-69
2021/04/02 05:47:01;;;;;;;3.30;3.03;;;6.00;99.90;;;;;;5049951;28;20680;-71
2021/04/02 05:49:28;;;;;;;6.27;3.77;;;5.80;99.90;;;;;;5047443;28;20457;-70
2021/04/02 05:51:57;;;;;;;8.63;4.27;;;5.80;99.90;;;;;;5036455;28;20470;-70
2021/04/02 05:54:28;;;;;;;21.03;4.97;;;5.70;99.90;;;;;;5052234;28;20528;-70
2021/04/02 05:56:55;;;;;;;4.70;3.17;;;5.70;99.90;;;;;;5050277;28;20511;-70
2021/04/02 05:59:24;;;;;;;7.57;4.90;;;5.80;99.90;;;;;;5050726;28;20434;-72
2021/04/02 06:01:51;;;;;;;6.77;3.40;;;6.00;99.90;;;;;;5057549;28;20995;-69
2021/04/02 06:04:18;;;;;;;5.70;3.27;;;6.20;99.90;;;;;;5047894;28;20471;-70
2021/04/02 06:06:45;;;;;;;4.90;2.70;;;6.20;99.90;;;;;;5055712;28;20471;-69
2021/04/02 06:09:13;;;;;;;10.27;4.67;;;6.00;99.90;;;;;;5051103;28;20448;-69
2021/04/02 06:11:39;;;;;;;5.80;3.77;;;5.90;99.90;;;;;;5057671;28;20474;-69
2021/04/02 06:14:06;;;;;;;4.33;3.60;;;5.90;99.90;;;;;;5043056;28;20461;-69
2021/04/02 06:16:34;;;;;;;6.27;3.03;;;5.80;99.90;;;;;;5045582;28;20765;-70
2021/04/02 06:19:06;;;;;;;8.37;3.37;;;6.10;99.90;;;;;;5048065;28;20658;-68
2021/04/02 06:21:44;;;;;;;3.90;2.93;;;6.10;99.90;;;;;;5060302;28;20493;-69
2021/04/02 06:24:12;;;;;;;2.57;2.37;;;6.00;99.90;;;;;;5049464;28;20462;-69
2021/04/02 06:26:39;;;;;;;10.93;4.33;;;6.00;99.90;;;;;;5043934;28;20568;-71
2021/04/02 06:29:06;;;;;;;14.60;4.30;;;6.00;99.90;;;;;;5041795;28;20467;-69
2021/04/02 06:31:35;;;;;;;11.60;3.73;;;6.10;99.90;;;;;;5036319;28;20551;-69
2021/04/02 06:34:06;;;;;;;8.83;3.67;;;6.10;99.90;;;;;;5037116;28;20833;-69
2021/04/02 06:36:34;;;;;;;5.60;3.00;;;6.00;99.90;;;;;;5048750;28;20463;-68
2021/04/02 06:39:04;;;;;;;3.30;2.70;;;6.10;99.90;;;;;;5042009;28;20534;-69
2021/04/02 06:41:32;;;;;;;9.40;4.70;;;6.00;99.90;;;;;;5055390;28;20452;-69
2021/04/02 06:44:00;;;;;;;7.93;2.40;;;6.00;99.90;;;;;;5051561;28;20511;-69
2021/04/02 06:46:28;;;;;;;8.13;3.70;;;6.20;99.90;;;;;;5048501;28;20471;-68
2021/04/02 06:49:07;;;;;;;4.60;2.80;;;6.10;99.90;;;;;;5046939;28;20445;-69
2021/04/02 06:51:37;;;;;;;10.03;3.80;;;6.20;99.90;;;;;;5050082;28;20501;-69
2021/04/02 06:54:05;;;;;;;4.80;2.90;;;5.90;99.90;;;;;;5055569;28;21014;-69
2021/04/02 06:56:32;;;;;;;3.13;2.57;;;6.00;99.90;;;;;;5047671;28;20529;-71
2021/04/02 06:59:00;;;;;;;8.00;3.30;;;6.00;99.90;;;;;;5047135;28;20455;-69
2021/04/02 07:01:32;;;;;;;6.47;3.07;;;6.20;99.90;;;;;;5055066;28;20478;-71
2021/04/02 07:04:00;;;;;;;8.10;2.53;;;6.20;99.90;;;;;;5048516;28;20468;-71
2021/04/02 07:06:27;;;;;;;4.47;2.70;;;6.20;99.90;;;;;;5045654;28;20891;-68
2021/04/02 07:08:55;;;;;;;3.50;3.13;;;6.40;99.90;;;;;;5044838;28;20483;-70
2021/04/02 07:11:22;;;;;;;4.73;3.30;;;6.50;99.90;;;;;;5051537;28;20486;-69
2021/04/02 07:13:51;;;;;;;6.03;2.70;;;6.60;99.90;;;;;;5050804;28;20522;-70
2021/04/02 07:16:19;;;;;;;4.70;3.77;;;6.70;99.90;;;;;;5039327;28;20474;-71
2021/04/02 07:18:46;;;;;;;5.50;3.83;;;6.50;99.90;;;;;;5045169;28;20460;-70
2021/04/02 07:21:14;;;;;;;4.10;1.83;;;6.50;99.90;;;;;;5044260;28;20486;-71
2021/04/02 07:23:42;;;;;;;13.37;2.40;;;6.60;99.90;;;;;;5029905;28;20971;-71
2021/04/02 07:26:10;;;;;;;3.50;2.67;;;6.70;99.90;;;;;;5050652;28;20430;-70
2021/04/02 07:28:39;;;;;;;2.50;2.30;;;6.50;99.90;;;;;;5043881;28;20570;-70
2021/04/02 07:31:07;;;;;;;4.70;2.60;;;6.60;99.90;;;;;;5037751;28;20461;-70
2021/04/02 07:33:36;;;;;;;3.70;1.70;;;6.60;99.90;;;;;;5038237;28;20516;-70
2021/04/02 07:36:05;;;;;;;2.10;1.60;;;6.50;99.90;;;;;;5043911;28;20468;-69
2021/04/02 07:38:35;;;;;;;2.63;2.37;;;6.60;99.90;;;;;;5036004;28;20479;-69
2021/04/02 07:41:08;;;;;;;4.70;3.07;;;6.50;99.90;;;;;;5040469;28;20502;-70
2021/04/02 07:43:37;;;;;;;4.83;2.90;;;6.70;99.90;;;;;;5042082;28;20447;-69
2021/04/02 07:46:15;;;;;;;4.40;3.47;;;6.60;99.90;;;;;;5030032;28;20502;-70
2021/04/02 07:48:42;;;;;;;5.20;2.73;;;6.60;99.90;;;;;;5043423;28;21258;-69
2021/04/02 07:51:09;;;;;;;2.93;2.60;;;6.60;99.90;;;;;;5034243;28;20551;-69
2021/04/02 07:53:46;;;;;;;5.40;3.50;;;6.80;99.90;;;;;;5029532;28;21032;-70
2021/04/02 07:56:14;;;;;;;2.63;2.07;;;6.70;99.90;;;;;;5041828;28;20447;-69
2021/04/02 07:58:46;;;;;;;4.20;3.80;;;6.80;99.90;;;;;;5037120;28;20495;-71
2021/04/02 08:01:13;;;;;;;3.10;2.13;;;6.90;99.90;;;;;;5034618;28;20506;-69
2021/04/02 08:03:39;;;;;;;8.87;3.40;;;7.10;99.90;;;;;;5038088;28;20462;-70
2021/04/02 08:06:08;;;;;;;8.23;2.23;;;7.00;99.90;;;;;;5036639;28;20430;-68
2021/04/02 08:08:44;;;;;;;5.53;2.90;;;7.00;99.90;;;;;;5042507;28;20508;-68
2021/04/02 08:11:15;;;;;;;3.80;2.00;;;7.00;99.90;;;;;;5042304;28;20438;-69
2021/04/02 08:13:53;;;;;;;2.50;2.30;;;7.10;99.90;;;;;;5038255;28;21023;-71
2021/04/02 08:16:48;;;;;;;2.90;2.00;;;7.20;99.90;;;;;;5040078;28;20483;-70
2021/04/02 08:19:34;;;;;;;4.97;3.53;;;7.20;99.90;;;;;;5045372;28;20503;-69
2021/04/02 08:22:03;;;;;;;14.53;2.60;;;7.30;99.90;;;;;;5046912;28;20732;-69
2021/04/02 08:24:32;;;;;;;4.40;2.40;;;7.30;99.90;;;;;;5040258;28;20483;-70
2021/04/02 08:26:59;;;;;;;3.73;2.73;;;7.40;99.90;;;;;;5047048;28;20510;-69
2021/04/02 08:29:28;;;;;;;3.77;1.93;;;7.40;99.90;;;;;;5047489;28;20512;-70
2021/04/02 08:31:56;;;;;;;3.07;2.87;;;7.40;99.90;;;;;;5052118;28;20527;-71
2021/04/02 08:34:25;;;;;;;8.50;2.97;;;7.40;99.90;;;;;;5041347;28;22914;-69
2021/04/02 08:36:56;;;;;;;2.90;1.77;;;7.30;99.90;;;;;;5041743;28;20498;-69
2021/04/02 08:39:25;;;;;;;10.10;3.73;;;7.60;99.90;;;;;;5042623;28;20508;-69
2021/04/02 08:41:56;;;;;;;4.20;3.40;;;7.70;99.90;;;;;;5046382;28;20459;-68
2021/04/02 08:44:34;;;;;;;3.97;2.20;;;7.70;99.90;;;;;;5050680;28;20815;-69
2021/04/02 08:47:02;;;;;;;3.33;2.30;;;7.60;99.90;;;;;;5051985;28;20469;-70
2021/04/02 08:49:36;;;;;;;3.50;2.17;;;7.50;99.90;;;;;;5053086;28;20527;-69
2021/04/02 08:52:07;;;;;;;5.03;3.03;;;7.30;99.90;;;;;;5051467;28;20471;-71
2021/04/02 08:54:33;;;;;;;4.73;2.80;;;7.30;99.90;;;;;;5049150;28;20860;-69
2021/04/02 08:57:01;;;;;;;8.20;3.20;;;7.40;99.90;;;;;;5050925;28;21682;-70
2021/04/02 08:59:31;;;;;;;1.60;1.50;;;7.60;99.90;;;;;;5044494;28;20466;-71
2021/04/02 09:01:58;;;;;;;10.27;3.30;;;7.50;99.90;;;;;;5043952;28;20545;-70
2021/04/02 09:04:25;;;;;;;5.40;3.03;;;7.60;99.90;;;;;;5028561;28;20454;-69
2021/04/02 09:06:52;;;;;;;11.73;2.87;;;7.60;99.90;;;;;;5034694;28;20986;-70
2021/04/02 09:09:21;;;;;;;6.53;2.93;;;7.60;99.90;;;;;;5046628;28;21082;-70
2021/04/02 09:11:49;;;;;;;2.47;2.20;;;7.50;99.90;;;;;;5044031;28;20459;-69
2021/04/02 09:14:17;;;;;;;4.30;2.90;;;7.40;99.90;;;;;;5046409;28;20471;-69
2021/04/02 09:16:46;;;;;;;3.70;2.07;;;7.50;99.90;;;;;;5031948;28;20486;-70
2021/04/02 09:19:14;;;;;;;8.83;3.50;;;7.50;99.90;;;;;;5044951;28;20466;-70
2021/04/02 09:21:42;;;;;;;2.80;2.23;;;7.40;99.90;;;;;;5049043;28;20483;-70
2021/04/02 09:24:09;;;;;;;5.53;4.20;;;7.40;99.90;;;;;;5051302;28;20445;-70
2021/04/02 09:26:39;;;;;;;2.73;2.50;;;7.70;99.90;;;;;;5041755;28;20458;-71
2021/04/02 09:29:06;;;;;;;3.77;2.33;;;7.70;99.90;;;;;;5040767;28;20817;-70
2021/04/02 09:31:35;;;;;;;3.90;3.50;;;7.70;99.90;;;;;;5039419;28;20841;-69
2021/04/02 09:34:04;;;;;;;5.03;3.10;;;7.90;99.90;;;;;;5050542;28;20460;-69
2021/04/02 09:36:32;;;;;;;4.90;3.70;;;8.00;99.90;;;;;;5047196;28;20598;-69
2021/04/02 09:39:08;;;;;;;1.90;1.63;;;7.90;99.90;;;;;;5050643;28;20521;-70
2021/04/02 09:41:35;;;;;;;9.73;1.93;;;7.80;99.90;;;;;;5043788;28;20990;-69
2021/04/02 09:44:13;;;;;;;6.80;4.13;;;7.90;99.90;;;;;;5045587;28;20460;-71
2021/04/02 09:46:42;;;;;;;4.07;2.60;;;8.00;99.90;;;;;;5040840;28;20858;-71
2021/04/02 09:49:12;;;;;;;9.03;3.63;;;8.20;99.90;;;;;;5045231;28;20476;-69
2021/04/02 09:51:41;;;;;;;5.80;3.00;;;8.30;99.90;;;;;;5051687;28;20426;-70
2021/04/02 09:54:11;;;;;;;2.40;2.20;;;8.30;99.90;;;;;;5053569;28;20454;-70
2021/04/02 09:56:39;;;;;;;5.57;3.27;;;8.50;99.90;;;;;;5048158;28;20482;-70
2021/04/02 09:59:07;;;;;;;2.43;2.03;;;8.40;99.90;;;;;;5048121;28;20459;-72
2021/04/02 10:01:34;;;;;;;2.87;2.33;;;8.60;99.90;;;;;;5049007;28;20479;-72
2021/04/02 10:04:03;;;;;;;4.07;2.90;;;8.50;99.90;;;;;;5052237;28;20469;-70
2021/04/02 10:06:30;;;;;;;3.77;2.70;;;8.50;99.90;;;;;;5052539;28;20468;-70
2021/04/02 10:08:57;;;;;;;4.50;3.10;;;8.30;99.90;;;;;;5038555;28;20502;-70
2021/04/02 10:11:24;;;;;;;7.70;3.43;;;8.50;99.90;;;;;;5046000;28;20938;-70
2021/04/02 10:13:51;;;;;;;2.90;2.10;;;8.60;99.90;;;;;;5050514;28;20478;-70
2021/04/02 10:16:18;;;;;;;2.73;2.03;;;8.70;99.90;;;;;;5049217;28;20501;-73
2021/04/02 10:18:47;;;;;;;6.77;3.23;;;8.80;99.90;;;;;;5052982;28;20432;-69
2021/04/02 10:21:14;;;;;;;3.60;2.83;;;8.80;99.90;;;;;;5050179;28;21049;-71
2021/04/02 10:23:41;;;;;;;3.10;2.80;;;8.80;99.90;;;;;;5042768;28;21002;-72
2021/04/02 10:26:08;;;;;;;9.03;2.10;;;8.70;99.90;;;;;;5036571;28;20494;-70
2021/04/02 10:28:35;;;;;;;1.60;1.30;;;8.90;99.90;;;;;;5040620;28;20456;-71
2021/04/02 10:31:02;;;;;;;3.27;2.97;;;9.00;99.90;;;;;;5032611;28;20430;-73
2021/04/02 10:33:28;;;;;;;2.80;2.10;;;8.80;99.90;;;;;;5046631;28;20581;-72
2021/04/02 10:35:55;;;;;;;2.80;2.27;;;8.70;99.90;;;;;;5033919;28;20454;-70
2021/04/02 10:38:23;;;;;;;5.27;2.43;;;8.70;99.90;;;;;;5042401;28;21011;-72
2021/04/02 10:40:50;;;;;;;2.73;1.93;;;8.80;99.90;;;;;;5046457;28;20960;-69
2021/04/02 10:43:17;;;;;;;3.03;2.33;;;9.10;99.90;;;;;;5042695;28;20605;-71
2021/04/02 10:45:44;;;;;;;8.43;3.93;;;9.50;99.90;;;;;;5032196;28;20857;-69
2021/04/02 10:48:11;;;;;;;2.77;2.43;;;9.50;99.90;;;;;;5042339;28;20486;-72
2021/04/02 10:50:38;;;;;;;6.80;2.50;;;9.50;99.90;;;;;;5042290;28;20836;-70
2021/04/02 10:53:05;;;;;;;5.10;2.23;;;8.90;99.90;;;;;;5045524;28;21034;-72
2021/04/02 10:55:34;;;;;;;2.80;1.90;;;8.70;99.90;;;;;;5045716;28;20437;-70
2021/04/02 10:58:01;;;;;;;2.23;1.53;;;8.80;99.90;;;;;;5045392;28;20456;-69
2021/04/02 11:00:27;;;;;;;3.27;2.27;;;8.90;99.90;;;;;;5045889;28;20459;-70
2021/04/02 11:02:54;;;;;;;4.53;2.30;;;9.00;99.90;;;;;;5049553;28;20455;-70
2021/04/02 11:05:21;;;;;;;5.33;2.40;;;9.00;99.90;;;;;;5039857;28;20438;-71
2021/04/02 11:07:48;;;;;;;6.07;2.50;;;9.10;99.90;;;;;;5034647;28;20486;-72
2021/04/02 11:10:15;;;;;;;3.77;2.83;;;9.10;99.90;;;;;;5043631;28;20438;-69
2021/04/02 11:12:43;;;;;;;4.27;3.87;;;9.10;99.90;;;;;;5045015;28;22297;-69
2021/04/02 11:15:12;;;;;;;4.93;2.57;;;9.10;99.90;;;;;;5034147;28;20466;-70
2021/04/02 11:17:40;;;;;;;3.23;2.70;;;9.10;99.90;;;;;;5043543;28;20545;-70
2021/04/02 11:20:08;;;;;;;3.73;3.10;;;9.10;99.90;;;;;;5045064;28;20810;-71
2021/04/02 11:22:35;;;;;;;6.30;3.47;;;8.90;99.90;;;;;;5050516;28;20488;-70
2021/04/02 11:25:02;;;;;;;5.97;3.90;;;9.00;99.90;;;;;;5041059;28;20431;-70
2021/04/02 11:27:29;;;;;;;24.50;17.33;;;9.00;99.90;;;;;;5047000;28;20897;-69
2021/04/02 11:29:56;;;;;;;10.73;4.97;;;9.00;99.90;;;;;;5042463;28;20442;-71
2021/04/02 11:32:23;;;;;;;7.20;4.80;;;8.90;99.90;;;;;;5036434;28;20488;-69
2021/04/02 11:34:50;;;;;;;17.87;9.40;;;8.70;99.90;;;;;;5028862;28;20457;-69
2021/04/02 11:37:18;;;;;;;10.57;5.23;;;8.50;99.90;;;;;;5034118;28;20454;-70
2021/04/02 11:39:46;;;;;;;4.00;2.93;;;8.50;99.90;;;;;;5046159;28;20561;-70
2021/04/02 11:42:13;;;;;;;10.13;3.33;;;8.50;99.90;;;;;;5059156;28;20474;-71
2021/04/02 11:44:40;;;;;;;6.27;3.00;;;8.50;99.90;;;;;;5048959;28;20438;-72
2021/04/02 11:47:08;;;;;;;4.53;2.80;;;8.50;99.90;;;;;;5061376;28;20564;-71
2021/04/02 11:49:36;;;;;;;5.27;2.67;;;8.90;99.90;;;;;;5061806;28;20474;-71
2021/04/02 11:52:04;;;;;;;4.00;3.00;;;9.50;99.90;;;;;;5062874;28;20447;-70
2021/04/02 11:54:31;;;;;;;5.20;2.83;;;9.90;99.90;;;;;;5053722;28;20441;-71
2021/04/02 11:56:58;;;;;;;4.10;2.50;;;10.50;99.90;;;;;;5055548;28;20460;-71
2021/04/02 11:59:24;;;;;;;4.43;2.80;;;10.60;99.90;;;;;;5042361;28;20461;-71
2021/04/02 12:01:51;;;;;;;5.57;3.60;;;10.70;99.90;;;;;;5037444;28;20486;-71
2021/04/02 12:04:19;;;;;;;4.33;2.47;;;10.50;99.90;;;;;;5053963;28;20427;-70
2021/04/02 12:06:45;;;;;;;2.23;1.70;;;10.30;99.90;;;;;;5060605;28;20460;-71
2021/04/02 12:09:15;;;;;;;15.13;3.37;;;10.10;99.90;;;;;;5047557;28;20490;-73
2021/04/02 12:11:42;;;;;;;5.90;3.13;;;10.20;99.90;;;;;;5068346;28;20429;-71
2021/04/02 12:14:09;;;;;;;6.40;3.03;;;10.50;99.90;;;;;;5053456;28;20469;-71
2021/04/02 12:16:36;;;;;;;2.67;2.07;;;11.30;99.90;;;;;;5052192;28;20490;-70
2021/04/02 12:19:05;;;;;;;2.80;2.23;;;11.40;99.90;;;;;;5057862;28;20466;-72
2021/04/02 12:21:33;;;;;;;5.47;2.87;;;11.70;99.90;;;;;;5056948;28;20495;-70
2021/04/02 12:24:02;;;;;;;2.10;1.80;;;11.50;99.90;;;;;;5055021;28;20795;-70
2021/04/02 12:26:29;;;;;;;3.77;2.20;;;11.50;99.90;;;;;;5056490;28;21003;-70
2021/04/02 12:28:55;;;;;;;2.20;1.90;;;11.00;99.90;;;;;;5052166;28;20517;-72
2021/04/02 12:31:22;;;;;;;2.23;2.00;;;10.80;99.90;;;;;;5055164;28;20445;-71
2021/04/02 12:33:49;;;;;;;2.57;2.20;;;10.50;99.90;;;;;;5052413;28;20485;-70
2021/04/02 12:36:15;;;;;;;2.97;2.67;;;10.40;99.90;;;;;;5038105;28;20476;-70
2021/04/02 12:38:43;;;;;;;3.90;2.37;;;10.50;99.90;;;;;;5050823;28;20742;-70
2021/04/02 12:41:09;;;;;;;2.60;2.10;;;10.50;99.90;;;;;;5061537;28;20454;-69
2021/04/02 12:43:36;;;;;;;5.47;2.10;;;10.40;99.90;;;;;;5053178;28;20978;-70
2021/04/02 12:46:03;;;;;;;1.67;1.43;;;9.90;99.90;;;;;;5050162;28;20939;-70
2021/04/02 12:48:29;;;;;;;2.03;1.53;;;9.90;99.90;;;;;;5056107;28;20536;-70
2021/04/02 12:50:57;;;;;;;11.33;2.87;;;10.10;99.90;;;;;;5038937;28;20517;-70
2021/04/02 12:53:25;;;;;;;3.30;2.87;;;10.70;99.90;;;;;;5053593;28;20454;-70
2021/04/02 12:55:52;;;;;;;2.50;2.10;;;10.70;99.90;;;;;;5050845;28;20434;-71
2021/04/02 12:58:19;;;;;;;2.30;2.00;;;10.70;99.90;;;;;;5053850;28;20460;-72
2021/04/02 13:00:46;;;;;;;1.70;1.23;;;10.60;99.90;;;;;;5050941;28;20434;-70
2021/04/02 13:03:13;;;;;;;3.83;1.60;;;10.40;99.90;;;;;;5041767;28;20496;-71